sensor_id;sensor_type;location;lat;lon;timestamp;P1;durP1;ratioP1;P2;durP2;ratioP2
8435;SDS011;4255;48.730;9.156;2023-11-21T00:02:02;7.40;;;4.50;;
8435;SDS011;4255;48.730;9.156;2023-11-21T00:04:29;7.57;;;3.78;;
8435;SDS011;4255;48.730;9.156;2023-11-21T00:06:55;10.80;;;4.37;;
8435;SDS011;4255;48.730;9.156;2023-11-21T00:09:20;7.63;;;4.60;;
8435;SDS011;4255;48.730;9.156;2023-11-21T00:11:46;13.02;;;4.47;;
8435;SDS011;4255;48.730;9.156;2023-11-21T00:14:12;8.60;;;4.43;;
8435;SDS011;4255;48.730;9.156;2023-11-21T00:16:41;7.70;;;5.55;;
8435;SDS011;4255;48.730;9.156;2023-11-21T00:19:07;9.13;;;4.10;;
8435;SDS011;4255;48.730;9.156;2023-11-21T00:21:32;4.73;;;4.43;;
8435;SDS011;4255;48.730;9.156;2023-11-21T00:23:58;7.90;;;5.10;;
8435;SDS011;4255;48.730;9.156;2023-11-21T00:26:23;8.30;;;4.53;;
8435;SDS011;4255;48.730;9.156;2023-11-21T00:28:49;6.70;;;4.30;;
8435;SDS011;4255;48.730;9.156;2023-11-21T00:31:15;15.60;;;4.55;;
8435;SDS011;4255;48.730;9.156;2023-11-21T00:33:41;11.93;;;4.93;;
8435;SDS011;4255;48.730;9.156;2023-11-21T00:36:08;6.38;;;3.92;;
8435;SDS011;4255;48.730;9.156;2023-11-21T00:38:37;9.90;;;3.65;;
8435;SDS011;4255;48.730;9.156;2023-11-21T00:41:05;7.63;;;4.85;;
8435;SDS011;4255;48.730;9.156;2023-11-21T00:43:31;5.68;;;3.50;;
8435;SDS011;4255;48.730;9.156;2023-11-21T00:45:58;14.98;;;3.80;;
8435;SDS011;4255;48.730;9.156;2023-11-21T00:48:23;4.80;;;3.53;;
8435;SDS011;4255;48.730;9.156;2023-11-21T00:50:49;6.60;;;3.60;;
8435;SDS011;4255;48.730;9.156;2023-11-21T00:53:15;6.50;;;3.87;;
8435;SDS011;4255;48.730;9.156;2023-11-21T00:55:41;7.10;;;3.50;;
8435;SDS011;4255;48.730;9.156;2023-11-21T00:58:06;3.97;;;3.60;;
8435;SDS011;4255;48.730;9.156;2023-11-21T01:00:35;5.83;;;3.50;;
8435;SDS011;4255;48.730;9.156;2023-11-21T01:03:00;4.85;;;3.85;;
8435;SDS011;4255;48.730;9.156;2023-11-21T01:05:27;5.50;;;3.60;;
8435;SDS011;4255;48.730;9.156;2023-11-21T01:07:53;8.83;;;4.60;;
8435;SDS011;4255;48.730;9.156;2023-11-21T01:10:18;7.23;;;3.53;;
8435;SDS011;4255;48.730;9.156;2023-11-21T01:12:44;3.90;;;3.40;;
8435;SDS011;4255;48.730;9.156;2023-11-21T01:15:09;5.87;;;4.17;;
8435;SDS011;4255;48.730;9.156;2023-11-21T01:17:37;9.25;;;3.75;;
8435;SDS011;4255;48.730;9.156;2023-11-21T01:20:03;6.40;;;3.42;;
8435;SDS011;4255;48.730;9.156;2023-11-21T01:22:37;10.13;;;4.05;;
8435;SDS011;4255;48.730;9.156;2023-11-21T01:25:03;12.90;;;3.78;;
8435;SDS011;4255;48.730;9.156;2023-11-21T01:27:32;7.75;;;3.28;;
8435;SDS011;4255;48.730;9.156;2023-11-21T01:29:57;8.10;;;3.30;;
8435;SDS011;4255;48.730;9.156;2023-11-21T01:32:23;5.20;;;3.90;;
8435;SDS011;4255;48.730;9.156;2023-11-21T01:34:50;6.03;;;3.37;;
8435;SDS011;4255;48.730;9.156;2023-11-21T01:37:16;6.30;;;3.75;;
8435;SDS011;4255;48.730;9.156;2023-11-21T01:39:42;3.00;;;2.80;;
8435;SDS011;4255;48.730;9.156;2023-11-21T01:42:10;6.00;;;3.70;;
8435;SDS011;4255;48.730;9.156;2023-11-21T01:44:37;5.00;;;2.83;;
8435;SDS011;4255;48.730;9.156;2023-11-21T01:47:04;5.63;;;3.03;;
8435;SDS011;4255;48.730;9.156;2023-11-21T01:49:33;8.77;;;3.70;;
8435;SDS011;4255;48.730;9.156;2023-11-21T01:51:59;4.20;;;3.80;;
8435;SDS011;4255;48.730;9.156;2023-11-21T01:54:24;8.67;;;3.50;;
8435;SDS011;4255;48.730;9.156;2023-11-21T01:56:50;5.07;;;3.10;;
8435;SDS011;4255;48.730;9.156;2023-11-21T01:59:20;4.70;;;3.20;;
8435;SDS011;4255;48.730;9.156;2023-11-21T02:01:46;6.88;;;3.63;;
8435;SDS011;4255;48.730;9.156;2023-11-21T02:04:13;7.90;;;4.83;;
8435;SDS011;4255;48.730;9.156;2023-11-21T02:06:39;5.20;;;3.13;;
8435;SDS011;4255;48.730;9.156;2023-11-21T02:09:05;4.57;;;2.60;;
8435;SDS011;4255;48.730;9.156;2023-11-21T02:11:30;3.73;;;3.27;;
8435;SDS011;4255;48.730;9.156;2023-11-21T02:13:58;6.10;;;3.17;;
8435;SDS011;4255;48.730;9.156;2023-11-21T02:16:24;6.63;;;2.90;;
8435;SDS011;4255;48.730;9.156;2023-11-21T02:18:51;5.57;;;3.80;;
8435;SDS011;4255;48.730;9.156;2023-11-21T02:21:17;6.35;;;2.95;;
8435;SDS011;4255;48.730;9.156;2023-11-21T02:23:44;7.72;;;2.60;;
8435;SDS011;4255;48.730;9.156;2023-11-21T02:26:11;3.40;;;3.10;;
8435;SDS011;4255;48.730;9.156;2023-11-21T02:28:38;3.85;;;2.70;;
8435;SDS011;4255;48.730;9.156;2023-11-21T02:31:05;5.25;;;3.15;;
8435;SDS011;4255;48.730;9.156;2023-11-21T02:33:30;2.90;;;2.50;;
8435;SDS011;4255;48.730;9.156;2023-11-21T02:36:05;3.25;;;2.30;;
8435;SDS011;4255;48.730;9.156;2023-11-21T02:38:31;4.20;;;2.92;;
8435;SDS011;4255;48.730;9.156;2023-11-21T02:40:57;4.60;;;2.50;;
8435;SDS011;4255;48.730;9.156;2023-11-21T02:43:24;3.38;;;2.30;;
8435;SDS011;4255;48.730;9.156;2023-11-21T02:45:50;2.30;;;2.20;;
8435;SDS011;4255;48.730;9.156;2023-11-21T02:48:15;2.33;;;2.13;;
8435;SDS011;4255;48.730;9.156;2023-11-21T02:50:41;4.07;;;2.40;;
8435;SDS011;4255;48.730;9.156;2023-11-21T02:53:08;6.95;;;2.50;;
8435;SDS011;4255;48.730;9.156;2023-11-21T02:55:35;2.25;;;2.15;;
8435;SDS011;4255;48.730;9.156;2023-11-21T02:58:01;5.93;;;1.90;;
8435;SDS011;4255;48.730;9.156;2023-11-21T03:00:28;5.13;;;2.28;;
8435;SDS011;4255;48.730;9.156;2023-11-21T03:02:55;2.60;;;2.20;;
8435;SDS011;4255;48.730;9.156;2023-11-21T03:05:21;3.70;;;2.15;;
8435;SDS011;4255;48.730;9.156;2023-11-21T03:07:46;2.77;;;2.30;;
8435;SDS011;4255;48.730;9.156;2023-11-21T03:10:12;2.43;;;2.23;;
8435;SDS011;4255;48.730;9.156;2023-11-21T03:12:38;5.03;;;2.27;;
8435;SDS011;4255;48.730;9.156;2023-11-21T03:15:05;3.22;;;2.17;;
8435;SDS011;4255;48.730;9.156;2023-11-21T03:17:31;4.63;;;2.22;;
8435;SDS011;4255;48.730;9.156;2023-11-21T03:19:58;2.17;;;2.08;;
8435;SDS011;4255;48.730;9.156;2023-11-21T03:22:24;3.85;;;2.05;;
8435;SDS011;4255;48.730;9.156;2023-11-21T03:24:51;2.05;;;1.95;;
8435;SDS011;4255;48.730;9.156;2023-11-21T03:27:17;2.30;;;1.90;;
8435;SDS011;4255;48.730;9.156;2023-11-21T03:29:43;3.10;;;2.20;;
8435;SDS011;4255;48.730;9.156;2023-11-21T03:32:10;8.25;;;1.98;;
8435;SDS011;4255;48.730;9.156;2023-11-21T03:34:52;2.80;;;2.00;;
8435;SDS011;4255;48.730;9.156;2023-11-21T03:37:19;6.15;;;3.22;;
8435;SDS011;4255;48.730;9.156;2023-11-21T03:39:45;2.20;;;2.00;;
8435;SDS011;4255;48.730;9.156;2023-11-21T03:42:12;2.28;;;2.03;;
8435;SDS011;4255;48.730;9.156;2023-11-21T03:44:37;4.23;;;1.90;;
8435;SDS011;4255;48.730;9.156;2023-11-21T03:47:03;3.73;;;2.47;;
8435;SDS011;4255;48.730;9.156;2023-11-21T03:49:28;2.10;;;1.70;;
8435;SDS011;4255;48.730;9.156;2023-11-21T03:51:54;5.23;;;2.03;;
8435;SDS011;4255;48.730;9.156;2023-11-21T03:54:21;2.35;;;1.95;;
8435;SDS011;4255;48.730;9.156;2023-11-21T03:56:46;4.33;;;2.10;;
8435;SDS011;4255;48.730;9.156;2023-11-21T03:59:12;3.20;;;1.87;;
8435;SDS011;4255;48.730;9.156;2023-11-21T04:01:37;2.70;;;2.30;;
8435;SDS011;4255;48.730;9.156;2023-11-21T04:04:03;4.30;;;3.80;;
8435;SDS011;4255;48.730;9.156;2023-11-21T04:06:29;2.53;;;2.20;;
8435;SDS011;4255;48.730;9.156;2023-11-21T04:08:54;1.80;;;1.70;;
8435;SDS011;4255;48.730;9.156;2023-11-21T04:11:20;3.13;;;2.57;;
8435;SDS011;4255;48.730;9.156;2023-11-21T04:13:46;2.33;;;1.97;;
8435;SDS011;4255;48.730;9.156;2023-11-21T04:16:12;1.80;;;1.70;;
8435;SDS011;4255;48.730;9.156;2023-11-21T04:18:38;1.97;;;1.70;;
8435;SDS011;4255;48.730;9.156;2023-11-21T04:21:07;2.20;;;1.75;;
8435;SDS011;4255;48.730;9.156;2023-11-21T04:23:33;4.93;;;2.60;;
8435;SDS011;4255;48.730;9.156;2023-11-21T04:25:58;2.53;;;1.97;;
8435;SDS011;4255;48.730;9.156;2023-11-21T04:28:25;2.70;;;2.17;;
8435;SDS011;4255;48.730;9.156;2023-11-21T04:30:50;2.83;;;2.27;;
8435;SDS011;4255;48.730;9.156;2023-11-21T04:33:16;2.23;;;2.00;;
8435;SDS011;4255;48.730;9.156;2023-11-21T04:35:42;2.50;;;2.13;;
8435;SDS011;4255;48.730;9.156;2023-11-21T04:38:08;2.03;;;1.67;;
8435;SDS011;4255;48.730;9.156;2023-11-21T04:40:33;2.97;;;2.07;;
8435;SDS011;4255;48.730;9.156;2023-11-21T04:42:59;1.97;;;1.87;;
8435;SDS011;4255;48.730;9.156;2023-11-21T04:45:24;2.07;;;1.80;;
8435;SDS011;4255;48.730;9.156;2023-11-21T04:47:50;1.70;;;1.63;;
8435;SDS011;4255;48.730;9.156;2023-11-21T04:50:17;7.32;;;2.70;;
8435;SDS011;4255;48.730;9.156;2023-11-21T04:52:44;4.53;;;1.67;;
8435;SDS011;4255;48.730;9.156;2023-11-21T04:55:09;3.33;;;1.90;;
8435;SDS011;4255;48.730;9.156;2023-11-21T04:57:38;1.60;;;1.50;;
8435;SDS011;4255;48.730;9.156;2023-11-21T05:00:06;2.15;;;1.95;;
8435;SDS011;4255;48.730;9.156;2023-11-21T05:02:33;1.80;;;1.70;;
8435;SDS011;4255;48.730;9.156;2023-11-21T05:05:00;2.38;;;1.85;;
8435;SDS011;4255;48.730;9.156;2023-11-21T05:07:25;1.80;;;1.70;;
8435;SDS011;4255;48.730;9.156;2023-11-21T05:09:54;2.38;;;1.98;;
8435;SDS011;4255;48.730;9.156;2023-11-21T05:12:23;1.67;;;1.50;;
8435;SDS011;4255;48.730;9.156;2023-11-21T05:14:49;1.67;;;1.58;;
8435;SDS011;4255;48.730;9.156;2023-11-21T05:17:15;1.52;;;1.50;;
8435;SDS011;4255;48.730;9.156;2023-11-21T05:19:41;1.70;;;1.60;;
8435;SDS011;4255;48.730;9.156;2023-11-21T05:22:08;1.90;;;1.60;;
8435;SDS011;4255;48.730;9.156;2023-11-21T05:24:33;2.00;;;1.53;;
8435;SDS011;4255;48.730;9.156;2023-11-21T05:27:00;1.80;;;1.70;;
8435;SDS011;4255;48.730;9.156;2023-11-21T05:29:25;1.50;;;1.40;;
8435;SDS011;4255;48.730;9.156;2023-11-21T05:31:51;1.80;;;1.70;;
8435;SDS011;4255;48.730;9.156;2023-11-21T05:34:18;3.60;;;3.30;;
8435;SDS011;4255;48.730;9.156;2023-11-21T05:36:43;2.60;;;1.70;;
8435;SDS011;4255;48.730;9.156;2023-11-21T05:39:13;1.95;;;1.85;;
8435;SDS011;4255;48.730;9.156;2023-11-21T05:41:39;8.88;;;1.80;;
8435;SDS011;4255;48.730;9.156;2023-11-21T05:44:04;2.30;;;1.50;;
8435;SDS011;4255;48.730;9.156;2023-11-21T05:46:30;2.40;;;1.80;;
8435;SDS011;4255;48.730;9.156;2023-11-21T05:48:56;5.03;;;3.50;;
8435;SDS011;4255;48.730;9.156;2023-11-21T05:51:21;2.40;;;1.90;;
8435;SDS011;4255;48.730;9.156;2023-11-21T05:53:47;2.70;;;2.30;;
8435;SDS011;4255;48.730;9.156;2023-11-21T05:56:12;2.80;;;2.57;;
8435;SDS011;4255;48.730;9.156;2023-11-21T05:58:38;3.50;;;3.20;;
8435;SDS011;4255;48.730;9.156;2023-11-21T06:01:05;3.80;;;3.27;;
8435;SDS011;4255;48.730;9.156;2023-11-21T06:03:32;4.30;;;3.80;;
8435;SDS011;4255;48.730;9.156;2023-11-21T06:05:58;4.13;;;3.70;;
8435;SDS011;4255;48.730;9.156;2023-11-21T06:08:23;4.13;;;3.60;;
8435;SDS011;4255;48.730;9.156;2023-11-21T06:10:49;2.77;;;2.40;;
8435;SDS011;4255;48.730;9.156;2023-11-21T06:13:15;3.17;;;2.87;;
8435;SDS011;4255;48.730;9.156;2023-11-21T06:15:41;5.00;;;3.30;;
8435;SDS011;4255;48.730;9.156;2023-11-21T06:18:07;3.22;;;2.80;;
8435;SDS011;4255;48.730;9.156;2023-11-21T06:20:35;3.38;;;3.17;;
8435;SDS011;4255;48.730;9.156;2023-11-21T06:23:02;5.68;;;4.22;;
8435;SDS011;4255;48.730;9.156;2023-11-21T06:25:28;3.50;;;3.20;;
8435;SDS011;4255;48.730;9.156;2023-11-21T06:27:54;3.57;;;3.27;;
8435;SDS011;4255;48.730;9.156;2023-11-21T06:30:21;2.90;;;2.60;;
8435;SDS011;4255;48.730;9.156;2023-11-21T06:32:48;3.28;;;3.08;;
8435;SDS011;4255;48.730;9.156;2023-11-21T06:35:15;3.30;;;3.10;;
8435;SDS011;4255;48.730;9.156;2023-11-21T06:37:40;5.53;;;3.60;;
8435;SDS011;4255;48.730;9.156;2023-11-21T06:40:06;3.00;;;2.80;;
8435;SDS011;4255;48.730;9.156;2023-11-21T06:42:32;3.22;;;2.90;;
8435;SDS011;4255;48.730;9.156;2023-11-21T06:45:03;9.18;;;3.30;;
8435;SDS011;4255;48.730;9.156;2023-11-21T06:47:29;3.13;;;2.85;;
8435;SDS011;4255;48.730;9.156;2023-11-21T06:49:55;2.92;;;2.72;;
8435;SDS011;4255;48.730;9.156;2023-11-21T06:52:21;3.53;;;3.23;;
8435;SDS011;4255;48.730;9.156;2023-11-21T06:54:47;7.00;;;4.65;;
8435;SDS011;4255;48.730;9.156;2023-11-21T06:57:16;10.48;;;7.80;;
8435;SDS011;4255;48.730;9.156;2023-11-21T06:59:42;6.75;;;5.47;;
8435;SDS011;4255;48.730;9.156;2023-11-21T07:02:08;7.93;;;5.67;;
8435;SDS011;4255;48.730;9.156;2023-11-21T07:04:34;4.82;;;4.32;;
8435;SDS011;4255;48.730;9.156;2023-11-21T07:07:01;4.32;;;4.00;;
8435;SDS011;4255;48.730;9.156;2023-11-21T07:09:27;5.78;;;3.70;;
8435;SDS011;4255;48.730;9.156;2023-11-21T07:11:53;4.33;;;3.93;;
8435;SDS011;4255;48.730;9.156;2023-11-21T07:14:19;3.63;;;3.33;;
8435;SDS011;4255;48.730;9.156;2023-11-21T07:16:45;4.17;;;3.77;;
8435;SDS011;4255;48.730;9.156;2023-11-21T07:19:11;3.65;;;3.35;;
8435;SDS011;4255;48.730;9.156;2023-11-21T07:21:37;3.93;;;3.50;;
8435;SDS011;4255;48.730;9.156;2023-11-21T07:24:07;5.30;;;3.70;;
8435;SDS011;4255;48.730;9.156;2023-11-21T07:26:33;4.13;;;3.55;;
8435;SDS011;4255;48.730;9.156;2023-11-21T07:29:00;7.47;;;4.22;;
8435;SDS011;4255;48.730;9.156;2023-11-21T07:31:27;7.15;;;4.05;;
8435;SDS011;4255;48.730;9.156;2023-11-21T07:33:54;4.13;;;3.80;;
8435;SDS011;4255;48.730;9.156;2023-11-21T07:36:22;6.53;;;3.83;;
8435;SDS011;4255;48.730;9.156;2023-11-21T07:38:48;5.53;;;3.72;;
8435;SDS011;4255;48.730;9.156;2023-11-21T07:41:15;6.25;;;4.53;;
8435;SDS011;4255;48.730;9.156;2023-11-21T07:43:41;4.43;;;3.75;;
8435;SDS011;4255;48.730;9.156;2023-11-21T07:46:07;4.13;;;3.67;;
8435;SDS011;4255;48.730;9.156;2023-11-21T07:48:33;7.40;;;3.80;;
8435;SDS011;4255;48.730;9.156;2023-11-21T07:51:00;6.60;;;3.47;;
8435;SDS011;4255;48.730;9.156;2023-11-21T07:53:28;4.80;;;3.85;;
8435;SDS011;4255;48.730;9.156;2023-11-21T07:55:55;4.07;;;3.67;;
8435;SDS011;4255;48.730;9.156;2023-11-21T07:58:21;5.93;;;3.88;;
8435;SDS011;4255;48.730;9.156;2023-11-21T08:00:46;5.00;;;4.60;;
8435;SDS011;4255;48.730;9.156;2023-11-21T08:03:16;4.77;;;4.20;;
8435;SDS011;4255;48.730;9.156;2023-11-21T08:05:42;5.80;;;5.20;;
8435;SDS011;4255;48.730;9.156;2023-11-21T08:08:08;5.82;;;4.45;;
8435;SDS011;4255;48.730;9.156;2023-11-21T08:10:33;9.10;;;6.43;;
8435;SDS011;4255;48.730;9.156;2023-11-21T08:13:00;6.78;;;4.10;;
8435;SDS011;4255;48.730;9.156;2023-11-21T08:15:26;5.57;;;3.92;;
8435;SDS011;4255;48.730;9.156;2023-11-21T08:17:52;8.10;;;4.23;;
8435;SDS011;4255;48.730;9.156;2023-11-21T08:20:18;7.37;;;4.40;;
8435;SDS011;4255;48.730;9.156;2023-11-21T08:22:43;4.30;;;3.90;;
8435;SDS011;4255;48.730;9.156;2023-11-21T08:25:09;5.28;;;3.90;;
8435;SDS011;4255;48.730;9.156;2023-11-21T08:27:35;8.40;;;4.00;;
8435;SDS011;4255;48.730;9.156;2023-11-21T08:30:05;6.43;;;4.13;;
8435;SDS011;4255;48.730;9.156;2023-11-21T08:32:32;9.13;;;3.65;;
8435;SDS011;4255;48.730;9.156;2023-11-21T08:34:58;5.03;;;4.07;;
8435;SDS011;4255;48.730;9.156;2023-11-21T08:37:24;4.30;;;3.90;;
8435;SDS011;4255;48.730;9.156;2023-11-21T08:39:52;4.35;;;3.92;;
8435;SDS011;4255;48.730;9.156;2023-11-21T08:42:18;4.05;;;3.60;;
8435;SDS011;4255;48.730;9.156;2023-11-21T08:44:44;3.90;;;3.60;;
8435;SDS011;4255;48.730;9.156;2023-11-21T08:47:10;6.32;;;5.75;;
8435;SDS011;4255;48.730;9.156;2023-11-21T08:49:36;4.70;;;3.40;;
8435;SDS011;4255;48.730;9.156;2023-11-21T08:52:03;4.10;;;3.75;;
8435;SDS011;4255;48.730;9.156;2023-11-21T08:54:30;5.45;;;3.47;;
8435;SDS011;4255;48.730;9.156;2023-11-21T08:56:56;3.03;;;2.83;;
8435;SDS011;4255;48.730;9.156;2023-11-21T08:59:23;3.67;;;3.22;;
8435;SDS011;4255;48.730;9.156;2023-11-21T09:01:49;3.15;;;2.90;;
8435;SDS011;4255;48.730;9.156;2023-11-21T09:04:15;3.28;;;2.30;;
8435;SDS011;4255;48.730;9.156;2023-11-21T09:06:41;3.80;;;3.00;;
8435;SDS011;4255;48.730;9.156;2023-11-21T09:09:07;2.70;;;2.50;;
8435;SDS011;4255;48.730;9.156;2023-11-21T09:11:33;3.03;;;2.72;;
8435;SDS011;4255;48.730;9.156;2023-11-21T09:13:59;2.90;;;2.60;;
8435;SDS011;4255;48.730;9.156;2023-11-21T09:16:25;2.90;;;2.60;;
8435;SDS011;4255;48.730;9.156;2023-11-21T09:18:51;3.93;;;2.00;;
8435;SDS011;4255;48.730;9.156;2023-11-21T09:21:17;2.10;;;2.00;;
8435;SDS011;4255;48.730;9.156;2023-11-21T09:23:44;4.60;;;2.70;;
8435;SDS011;4255;48.730;9.156;2023-11-21T09:26:09;2.30;;;2.10;;
8435;SDS011;4255;48.730;9.156;2023-11-21T09:28:35;2.30;;;2.13;;
8435;SDS011;4255;48.730;9.156;2023-11-21T09:31:03;2.40;;;2.30;;
8435;SDS011;4255;48.730;9.156;2023-11-21T09:33:34;9.23;;;2.20;;
8435;SDS011;4255;48.730;9.156;2023-11-21T09:35:59;2.80;;;2.60;;
8435;SDS011;4255;48.730;9.156;2023-11-21T09:38:26;2.10;;;2.00;;
8435;SDS011;4255;48.730;9.156;2023-11-21T09:40:53;2.38;;;2.28;;
8435;SDS011;4255;48.730;9.156;2023-11-21T09:43:20;2.47;;;2.27;;
8435;SDS011;4255;48.730;9.156;2023-11-21T09:45:47;3.55;;;2.03;;
8435;SDS011;4255;48.730;9.156;2023-11-21T09:48:18;1.95;;;1.80;;
8435;SDS011;4255;48.730;9.156;2023-11-21T09:50:45;2.20;;;1.50;;
8435;SDS011;4255;48.730;9.156;2023-11-21T09:53:13;1.70;;;1.60;;
8435;SDS011;4255;48.730;9.156;2023-11-21T09:55:52;1.52;;;1.42;;
8435;SDS011;4255;48.730;9.156;2023-11-21T09:58:20;1.98;;;1.67;;
8435;SDS011;4255;48.730;9.156;2023-11-21T10:00:47;6.53;;;4.10;;
8435;SDS011;4255;48.730;9.156;2023-11-21T10:03:14;1.60;;;1.50;;
8435;SDS011;4255;48.730;9.156;2023-11-21T10:05:44;2.17;;;1.50;;
8435;SDS011;4255;48.730;9.156;2023-11-21T10:08:13;3.30;;;1.80;;
8435;SDS011;4255;48.730;9.156;2023-11-21T10:10:46;2.83;;;2.17;;
8435;SDS011;4255;48.730;9.156;2023-11-21T10:13:14;1.75;;;1.65;;
8435;SDS011;4255;48.730;9.156;2023-11-21T10:15:42;4.00;;;2.97;;
8435;SDS011;4255;48.730;9.156;2023-11-21T10:18:13;4.50;;;2.22;;
8435;SDS011;4255;48.730;9.156;2023-11-21T10:23:18;8.43;;;5.30;;
8435;SDS011;4255;48.730;9.156;2023-11-21T10:25:46;9.10;;;6.18;;
8435;SDS011;4255;48.730;9.156;2023-11-21T10:28:11;3.30;;;3.00;;
8435;SDS011;4255;48.730;9.156;2023-11-21T10:30:37;1.90;;;1.80;;
8435;SDS011;4255;48.730;9.156;2023-11-21T10:33:06;2.30;;;2.20;;
8435;SDS011;4255;48.730;9.156;2023-11-21T10:38:07;2.40;;;1.90;;
8435;SDS011;4255;48.730;9.156;2023-11-21T10:40:37;2.05;;;1.80;;
8435;SDS011;4255;48.730;9.156;2023-11-21T10:43:07;3.80;;;3.50;;
8435;SDS011;4255;48.730;9.156;2023-11-21T10:45:34;2.10;;;1.90;;
8435;SDS011;4255;48.730;9.156;2023-11-21T10:48:04;3.50;;;3.20;;
8435;SDS011;4255;48.730;9.156;2023-11-21T10:50:34;4.35;;;3.85;;
8435;SDS011;4255;48.730;9.156;2023-11-21T10:53:01;2.15;;;2.05;;
8435;SDS011;4255;48.730;9.156;2023-11-21T10:55:28;2.90;;;2.50;;
8435;SDS011;4255;48.730;9.156;2023-11-21T10:57:54;2.30;;;2.20;;
8435;SDS011;4255;48.730;9.156;2023-11-21T11:00:23;2.00;;;1.90;;
8435;SDS011;4255;48.730;9.156;2023-11-21T11:02:51;4.75;;;4.35;;
8435;SDS011;4255;48.730;9.156;2023-11-21T11:05:19;6.25;;;4.32;;
8435;SDS011;4255;48.730;9.156;2023-11-21T11:07:50;4.47;;;3.03;;
8435;SDS011;4255;48.730;9.156;2023-11-21T11:10:24;6.88;;;5.00;;
8435;SDS011;4255;48.730;9.156;2023-11-21T11:12:52;7.32;;;3.15;;
8435;SDS011;4255;48.730;9.156;2023-11-21T11:15:25;5.22;;;2.80;;
8435;SDS011;4255;48.730;9.156;2023-11-21T11:17:52;3.67;;;3.33;;
8435;SDS011;4255;48.730;9.156;2023-11-21T11:20:21;5.70;;;5.20;;
8435;SDS011;4255;48.730;9.156;2023-11-21T11:25:39;3.35;;;3.15;;
8435;SDS011;4255;48.730;9.156;2023-11-21T11:28:44;3.45;;;3.15;;
8435;SDS011;4255;48.730;9.156;2023-11-21T11:37:00;2.38;;;2.28;;
8435;SDS011;4255;48.730;9.156;2023-11-21T11:39:29;3.10;;;2.83;;
8435;SDS011;4255;48.730;9.156;2023-11-21T11:42:14;2.03;;;1.60;;
8435;SDS011;4255;48.730;9.156;2023-11-21T11:47:14;5.30;;;1.70;;
8435;SDS011;4255;48.730;9.156;2023-11-21T11:52:45;2.55;;;1.73;;
8435;SDS011;4255;48.730;9.156;2023-11-21T11:57:39;1.75;;;1.67;;
8435;SDS011;4255;48.730;9.156;2023-11-21T12:02:41;3.10;;;1.80;;
8435;SDS011;4255;48.730;9.156;2023-11-21T12:05:13;2.17;;;2.08;;
8435;SDS011;4255;48.730;9.156;2023-11-21T12:07:46;2.10;;;2.00;;
8435;SDS011;4255;48.730;9.156;2023-11-21T12:10:18;2.25;;;2.10;;
8435;SDS011;4255;48.730;9.156;2023-11-21T12:12:50;7.78;;;1.90;;
8435;SDS011;4255;48.730;9.156;2023-11-21T12:15:17;2.03;;;1.90;;
8435;SDS011;4255;48.730;9.156;2023-11-21T12:17:44;2.03;;;1.92;;
8435;SDS011;4255;48.730;9.156;2023-11-21T12:20:11;2.35;;;2.20;;
8435;SDS011;4255;48.730;9.156;2023-11-21T12:22:46;2.08;;;1.98;;
8435;SDS011;4255;48.730;9.156;2023-11-21T12:25:16;2.22;;;2.10;;
8435;SDS011;4255;48.730;9.156;2023-11-21T12:27:43;1.98;;;1.88;;
8435;SDS011;4255;48.730;9.156;2023-11-21T12:30:10;1.90;;;1.80;;
8435;SDS011;4255;48.730;9.156;2023-11-21T12:32:42;2.50;;;2.15;;
8435;SDS011;4255;48.730;9.156;2023-11-21T12:35:11;2.03;;;1.85;;
8435;SDS011;4255;48.730;9.156;2023-11-21T12:37:38;2.47;;;2.38;;
8435;SDS011;4255;48.730;9.156;2023-11-21T12:40:08;3.83;;;3.63;;
8435;SDS011;4255;48.730;9.156;2023-11-21T12:42:37;2.45;;;2.35;;
8435;SDS011;4255;48.730;9.156;2023-11-21T12:45:07;2.50;;;2.40;;
8435;SDS011;4255;48.730;9.156;2023-11-21T12:47:39;2.55;;;2.45;;
8435;SDS011;4255;48.730;9.156;2023-11-21T12:50:05;2.42;;;2.33;;
8435;SDS011;4255;48.730;9.156;2023-11-21T12:52:32;2.30;;;2.20;;
8435;SDS011;4255;48.730;9.156;2023-11-21T12:54:58;2.38;;;2.20;;
8435;SDS011;4255;48.730;9.156;2023-11-21T12:57:26;2.80;;;2.70;;
8435;SDS011;4255;48.730;9.156;2023-11-21T12:59:56;2.40;;;2.30;;
8435;SDS011;4255;48.730;9.156;2023-11-21T13:02:23;3.28;;;2.50;;
8435;SDS011;4255;48.730;9.156;2023-11-21T13:04:52;2.60;;;2.40;;
8435;SDS011;4255;48.730;9.156;2023-11-21T13:07:19;2.88;;;2.65;;
8435;SDS011;4255;48.730;9.156;2023-11-21T13:09:45;2.70;;;2.50;;
8435;SDS011;4255;48.730;9.156;2023-11-21T13:12:11;4.20;;;2.90;;
8435;SDS011;4255;48.730;9.156;2023-11-21T13:14:37;2.90;;;2.70;;
8435;SDS011;4255;48.730;9.156;2023-11-21T13:17:05;8.27;;;2.72;;
8435;SDS011;4255;48.730;9.156;2023-11-21T13:19:30;2.33;;;2.23;;
8435;SDS011;4255;48.730;9.156;2023-11-21T13:21:56;2.10;;;2.00;;
8435;SDS011;4255;48.730;9.156;2023-11-21T13:24:23;2.60;;;2.45;;
8435;SDS011;4255;48.730;9.156;2023-11-21T13:26:50;2.58;;;2.47;;
8435;SDS011;4255;48.730;9.156;2023-11-21T13:29:16;2.70;;;2.50;;
8435;SDS011;4255;48.730;9.156;2023-11-21T13:31:41;2.60;;;2.50;;
8435;SDS011;4255;48.730;9.156;2023-11-21T13:34:07;2.50;;;2.40;;
8435;SDS011;4255;48.730;9.156;2023-11-21T13:36:33;3.13;;;2.92;;
8435;SDS011;4255;48.730;9.156;2023-11-21T13:39:00;2.92;;;2.72;;
8435;SDS011;4255;48.730;9.156;2023-11-21T13:41:32;3.15;;;2.10;;
8435;SDS011;4255;48.730;9.156;2023-11-21T13:43:58;1.70;;;1.60;;
8435;SDS011;4255;48.730;9.156;2023-11-21T13:46:43;1.60;;;1.50;;
8435;SDS011;4255;48.730;9.156;2023-11-21T13:49:10;1.73;;;1.63;;
8435;SDS011;4255;48.730;9.156;2023-11-21T13:51:36;1.77;;;1.40;;
8435;SDS011;4255;48.730;9.156;2023-11-21T13:54:10;1.60;;;1.50;;
8435;SDS011;4255;48.730;9.156;2023-11-21T13:56:36;1.70;;;1.60;;
8435;SDS011;4255;48.730;9.156;2023-11-21T13:59:02;2.07;;;1.93;;
8435;SDS011;4255;48.730;9.156;2023-11-21T14:01:50;1.90;;;1.80;;
8435;SDS011;4255;48.730;9.156;2023-11-21T14:04:24;2.13;;;2.03;;
8435;SDS011;4255;48.730;9.156;2023-11-21T14:07:04;2.10;;;1.95;;
8435;SDS011;4255;48.730;9.156;2023-11-21T14:09:45;2.50;;;2.30;;
8435;SDS011;4255;48.730;9.156;2023-11-21T14:12:11;2.83;;;2.63;;
8435;SDS011;4255;48.730;9.156;2023-11-21T14:14:38;3.10;;;2.90;;
8435;SDS011;4255;48.730;9.156;2023-11-21T14:17:04;2.33;;;2.22;;
8435;SDS011;4255;48.730;9.156;2023-11-21T14:19:32;3.13;;;2.92;;
8435;SDS011;4255;48.730;9.156;2023-11-21T14:21:58;4.05;;;3.53;;
8435;SDS011;4255;48.730;9.156;2023-11-21T14:24:24;5.38;;;4.30;;
8435;SDS011;4255;48.730;9.156;2023-11-21T14:26:50;3.70;;;3.40;;
8435;SDS011;4255;48.730;9.156;2023-11-21T14:29:16;4.90;;;4.50;;
8435;SDS011;4255;48.730;9.156;2023-11-21T14:31:45;3.50;;;3.17;;
8435;SDS011;4255;48.730;9.156;2023-11-21T14:34:11;4.18;;;3.78;;
8435;SDS011;4255;48.730;9.156;2023-11-21T14:36:38;4.50;;;4.10;;
8435;SDS011;4255;48.730;9.156;2023-11-21T14:39:04;4.47;;;4.10;;
8435;SDS011;4255;48.730;9.156;2023-11-21T14:41:34;4.32;;;4.00;;
8435;SDS011;4255;48.730;9.156;2023-11-21T14:44:02;4.45;;;4.05;;
8435;SDS011;4255;48.730;9.156;2023-11-21T14:46:28;5.05;;;4.18;;
8435;SDS011;4255;48.730;9.156;2023-11-21T14:48:55;4.47;;;4.07;;
8435;SDS011;4255;48.730;9.156;2023-11-21T14:51:44;4.95;;;4.55;;
8435;SDS011;4255;48.730;9.156;2023-11-21T14:54:25;4.15;;;3.85;;
8435;SDS011;4255;48.730;9.156;2023-11-21T14:57:11;6.03;;;4.40;;
8435;SDS011;4255;48.730;9.156;2023-11-21T14:59:45;4.22;;;3.92;;
8435;SDS011;4255;48.730;9.156;2023-11-21T15:02:13;5.63;;;4.95;;
8435;SDS011;4255;48.730;9.156;2023-11-21T15:04:43;4.97;;;4.32;;
8435;SDS011;4255;48.730;9.156;2023-11-21T15:07:09;5.22;;;4.72;;
8435;SDS011;4255;48.730;9.156;2023-11-21T15:09:36;5.22;;;4.72;;
8435;SDS011;4255;48.730;9.156;2023-11-21T15:12:10;4.50;;;3.70;;
8435;SDS011;4255;48.730;9.156;2023-11-21T15:14:49;4.93;;;4.53;;
8435;SDS011;4255;48.730;9.156;2023-11-21T15:17:20;9.23;;;7.38;;
8435;SDS011;4255;48.730;9.156;2023-11-21T15:19:50;5.60;;;5.10;;
8435;SDS011;4255;48.730;9.156;2023-11-21T15:22:17;5.75;;;5.15;;
8435;SDS011;4255;48.730;9.156;2023-11-21T15:24:42;6.43;;;5.83;;
8435;SDS011;4255;48.730;9.156;2023-11-21T15:27:11;5.30;;;4.60;;
8435;SDS011;4255;48.730;9.156;2023-11-21T15:29:40;6.15;;;4.38;;
8435;SDS011;4255;48.730;9.156;2023-11-21T15:32:06;6.72;;;4.32;;
8435;SDS011;4255;48.730;9.156;2023-11-21T15:34:33;4.72;;;4.35;;
8435;SDS011;4255;48.730;9.156;2023-11-21T15:36:59;6.55;;;5.43;;
8435;SDS011;4255;48.730;9.156;2023-11-21T15:39:25;7.80;;;5.63;;
8435;SDS011;4255;48.730;9.156;2023-11-21T15:41:55;6.57;;;5.78;;